Loading…
Loading…
Loading…
Loading…
Loading parcel record…
Ship Bottom, NJ·Ocean County
Owner email, phone, and authorized agent are available on Pro.
| Date | Price | Book / Page | Verified by |
|---|---|---|---|
| 7/19/2016 | $285,000 | 16456 / 204 | Tax assessor |
| 4/5/2000 | $137,000 | 10080 / 702 | Tax assessor |
| 5/5/1999 | $133,000 | 5694 / 317 | Tax assessor |
Activity captured from the county clerk's daily feed. Includes deeds, mortgages, and other recorded filings.
| Date | Type | Grantor | Grantee | Book / Page | Instrument |
|---|---|---|---|---|---|
| 2026-04-08 | DEED | — | — | 20336 / 1742 | 2026027286 |
| 2026-03-12 | TAX SALE CERTIFICATE | — | — | 20310 / 817 | 2026019604 |
| 2026-03-06 | MORTGAGE | — | — | 20304 / 1444 | 2026017969 |
| 2026-01-30 | DEED | — | — | 20272 / 284 |
| 2026008295 |
| 2026-01-13 | NOTICE OF SETTLEMENT | — | — | 20255 / 159 | 2026003011 |
| 2025-12-18 | STATE PERMIT | — | — | 20231 / 979 | 2025100757 |
| 2025-10-08 | DISCHARGE OF LEASE | — | — | 20158 / 1510 | 2025079648 |
| 2025-09-25 | UCC TERMINATION | — | — | 20144 / 1038 | 2025075571 |
| 2025-09-24 | DEED | — | — | 20142 / 1730 | 2025075036 |
| 2025-09-12 | NOTICE OF SETTLEMENT | — | — | 20131 / 825 | 2025071760 |
| 2025-07-31 | LEASE | — | — | 20088 / 152 | 2025058892 |
| 2025-07-01 | MORTGAGE | — | — | 20056 / 1627 | 2025050057 |
| 2025-07-01 | DEED | — | — | 20056 / 1622 | 2025050056 |
| 2025-06-11 | DEED | — | — | 20039 / 571 | 2025044770 |
| 2025-04-21 | NOTICE OF SETTLEMENT DOUBLE TRANSACTION | — | — | 19986 / 984 | 2025029235 |
| 2025-03-21 | UCC CONTINUATION | — | — | 19959 / 1833 | 2025021038 |
| 2025-03-17 | NOTICE OF SETTLEMENT | — | — | 19955 / 235 | 2025019619 |
| 2025-03-07 | DEED | — | — | 19946 / 1377 | 2025017020 |
| 2025-02-03 | NOTICE OF SETTLEMENT DOUBLE TRANSACTION | — | — | 19917 / 808 | 2025007990 |
| 2025-01-14 | TAX WAIVER-INHERITANCE | — | — | 19901 / 1559 | 2025003289 |
| 2025-01-13 | NOTICE OF SETTLEMENT DOUBLE TRANSACTION | — | — | 19901 / 942 | 2025003206 |
| 2025-01-08 | DISCHARGE OF LIS PENDENS | — | — | 19896 / 587 | 2025001709 |
| 2024-12-16 | DEED | — | — | 19876 / 1356 | 2024093127 |
| 2024-10-28 | MORTGAGE MODIFICATION | — | — | 19830 / 427 | 2024079762 |
| 2024-10-16 | DEED | — | — | 19819 / 763 | 2024076441 |
| 2024-10-11 | NOTICE OF SETTLEMENT DOUBLE TRANSACTION | — | — | 19816 / 624 | 2024075479 |
| 2024-08-12 | MORTGAGE | — | — | 19761 / 66 | 2024059107 |
| 1990-07-02 | MORT | — | — | 3405 / 330 | 032242 |
| 1990-05-18 | MORT | — | — | 3392 / 288 | 024216 |
| 1990-05-16 | MORT | — | — | 3391 / 446 | 023711 |